This is the latest recevied weather packets stored in our database for station/object K4VEB. If no packets are shown the sender has not sent any weather packets the latest 1 day(s).
| Time | Temp. | Humidity | Pressure | Rain* | Wind** | Luminosity | Snow |
|---|---|---|---|---|---|---|---|
| 1778028941 | 25° C | 56% | 1015.3 hPa | 0 mm | - | 0 W/m² | - |
| 1778028335 | 25° C | 56% | 1015 hPa | 0 mm | - | 0 W/m² | - |
| 1778028031 | 25° C | 56% | 1015.1 hPa | 0 mm | - | 0 W/m² | - |
| 1778027120 | 25.56° C | 55% | 1014.7 hPa | 0 mm | - | 0 W/m² | - |
| 1778023486 | 26.67° C | 53% | 1014.1 hPa | 0 mm | - | 42 W/m² | - |
| 1778022578 | 27.22° C | 52% | 1014.2 hPa | 0 mm | - | 66 W/m² | - |
| 1778020152 | 30° C | 38% | 1014 hPa | 0 mm | - | 151 W/m² | - |
| 1778017729 | 31.11° C | 37% | 1014 hPa | 0 mm | - | 292 W/m² | - |
| 1778017426 | 31.11° C | 36% | 1014.2 hPa | 0 mm | - | 347 W/m² | - |
| 1778016517 | 30.56° C | 37% | 1014.3 hPa | 0 mm | - | 380 W/m² | - |
| 1778016214 | 30.56° C | 39% | 1014.1 hPa | 0 mm | - | 290 W/m² | - |
| 1778015910 | 31.11° C | 37% | 1014.2 hPa | 0 mm | - | 400 W/m² | - |
| 1778015608 | 31.11° C | 38% | 1013.9 hPa | 0 mm | - | 451 W/m² | - |
| 1778014093 | 30° C | 40% | 1014.1 hPa | 0 mm | - | 514 W/m² | - |
| 1778013791 | 30° C | 40% | 1014.1 hPa | 0 mm | - | 556 W/m² | - |
| 1778013488 | 30° C | 40% | 1014.3 hPa | 0 mm | - | 511 W/m² | - |
| 1778006823 | 30.56° C | 39% | 1015.5 hPa | 0 mm | - | 786 W/m² | - |
| 1778006521 | 30.56° C | 39% | 1015.4 hPa | 0 mm | - | 786 W/m² | - |
| 1778005915 | 31.11° C | 37% | 1015.6 hPa | 0 mm | - | 282 W/m² | - |
| 1778005004 | 31.11° C | 38% | 1015.6 hPa | 0 mm | - | 957 W/m² | - |
| 1778004398 | 27.78° C | 48% | 1015.9 hPa | 0 mm | - | 989 W/m² | - |
| 1778003488 | 28.89° C | 45% | 1015.9 hPa | 0 mm | - | 161 W/m² | - |
| 1778002274 | 28.33° C | 49% | 1016.2 hPa | 0 mm | - | 865 W/m² | - |
* Rain latest hour (hover to see other rain measurements)
** Current wind speed in m/s (hover to see current wind gust speed)